createdAt,value
2022-08-09T00:01:14.532Z,29.91
2022-08-09T00:04:24.951Z,29.89
2022-08-09T00:07:23.743Z,29.86
2022-08-09T00:10:29.072Z,29.74
2022-08-09T00:13:34.390Z,29.51
2022-08-09T00:16:03.048Z,29.52
2022-08-09T00:18:31.350Z,29.55
2022-08-09T00:21:36.208Z,29.46
2022-08-09T00:24:04.453Z,29.43
2022-08-09T00:26:33.308Z,29.3
2022-08-09T00:29:38.963Z,29.29
2022-08-09T00:32:06.249Z,29.32
2022-08-09T00:34:34.483Z,29.27
2022-08-09T00:36:54.517Z,29.23
2022-08-09T00:40:10.518Z,29.2
2022-08-09T00:44:09.720Z,29.11
2022-08-09T00:45:34.579Z,29
2022-08-09T00:48:01.636Z,28.94
2022-08-09T00:50:29.916Z,28.99
2022-08-09T00:53:36.261Z,29
2022-08-09T00:56:05.498Z,29.02
2022-08-09T00:58:31.814Z,28.87
2022-08-09T01:01:44.521Z,28.79
2022-08-09T01:04:05.256Z,28.8
2022-08-09T01:06:35.329Z,28.81
2022-08-09T01:09:01.889Z,28.86
2022-08-09T01:11:29.982Z,28.86
2022-08-09T01:14:35.297Z,28.8
2022-08-09T01:17:03.565Z,28.82
2022-08-09T01:19:39.755Z,28.78
2022-08-09T01:22:37.159Z,28.65
2022-08-09T01:25:05.383Z,28.61
2022-08-09T01:27:33.641Z,28.72
2022-08-09T01:30:02.094Z,28.7
2022-08-09T01:32:33.665Z,28.53
2022-08-09T01:35:28.722Z,28.41
2022-08-09T01:38:32.569Z,28.23
2022-08-09T01:41:37.813Z,28.28
2022-08-09T01:44:06.085Z,28.23
2022-08-09T01:46:34.382Z,28.21
2022-08-09T01:49:09.864Z,28.12
2022-08-09T01:51:32.110Z,28.12
2022-08-09T01:55:13.214Z,27.95
2022-08-09T01:58:18.546Z,27.93
2022-08-09T02:01:30.697Z,27.84
2022-08-09T02:04:29.167Z,27.87
2022-08-09T02:08:36.420Z,27.71
2022-08-09T02:10:03.756Z,27.72
2022-08-09T02:12:30.944Z,27.64
2022-08-09T02:15:49.715Z,27.5
2022-08-09T02:18:09.475Z,27.46
2022-08-09T02:20:33.967Z,27.42
2022-08-09T02:23:00.979Z,27.43
2022-08-09T02:25:29.252Z,27.4
2022-08-09T02:28:34.548Z,27.17
2022-08-09T02:31:02.831Z,27.15
2022-08-09T02:33:37.534Z,27.19
2022-08-09T02:36:28.192Z,27.17
2022-08-09T02:39:39.923Z,27.02
2022-08-09T02:42:01.742Z,27.04
2022-08-09T02:44:29.978Z,27.06
2022-08-09T02:47:46.567Z,26.92
2022-08-09T02:50:03.526Z,26.94
2022-08-09T02:52:31.999Z,26.96
2022-08-09T02:55:39.510Z,26.78
2022-08-09T02:58:32.186Z,26.86
2022-08-09T03:00:33.632Z,26.75
2022-08-09T03:03:01.886Z,26.76
2022-08-09T03:05:34.287Z,26.64
2022-08-09T03:08:35.372Z,26.54
2022-08-09T03:11:03.648Z,26.61
2022-08-09T03:13:43.210Z,26.63
2022-08-09T03:16:41.593Z,26.62
2022-08-09T03:19:05.853Z,26.65
2022-08-09T03:21:36.483Z,26.56
2022-08-09T03:24:04.202Z,26.54
2022-08-09T03:26:30.849Z,26.4
2022-08-09T03:29:35.679Z,26.3
2022-08-09T03:32:03.779Z,26.27
2022-08-09T03:34:23.837Z,26.1
2022-08-09T03:37:54.899Z,26.04
2022-08-09T03:40:34.404Z,26.17
2022-08-09T03:43:02.746Z,26.11
2022-08-09T03:46:03.812Z,25.99
2022-08-09T03:48:36.250Z,25.99
2022-08-09T03:51:04.756Z,26.06
2022-08-09T03:53:32.765Z,26.09
2022-08-09T03:56:01.012Z,26.06
2022-08-09T03:58:29.213Z,26
2022-08-09T04:01:34.514Z,25.98
2022-08-09T04:04:04.819Z,25.98
2022-08-09T04:06:31.047Z,26.02
2022-08-09T04:09:42.194Z,25.95
2022-08-09T04:12:04.603Z,25.97
2022-08-09T04:14:37.830Z,25.83
2022-08-09T04:17:01.128Z,25.85
2022-08-09T04:19:30.170Z,25.83
2022-08-09T04:22:34.690Z,25.8
2022-08-09T04:25:03.173Z,25.78
2022-08-09T04:27:31.156Z,25.74
2022-08-09T04:30:36.465Z,25.54
2022-08-09T04:33:04.711Z,25.57
2022-08-09T04:36:01.817Z,25.76
2022-08-09T04:38:30.069Z,25.7
2022-08-09T04:41:43.530Z,25.51
2022-08-09T04:44:06.210Z,25.47
2022-08-09T04:46:36.541Z,25.62
2022-08-09T04:49:41.055Z,25.53
2022-08-09T04:52:05.439Z,25.49
2022-08-09T04:54:33.708Z,25.55
2022-08-09T04:57:03.728Z,25.57
2022-08-09T04:59:30.317Z,25.66
2022-08-09T05:02:35.485Z,25.59
2022-08-09T05:05:04.360Z,25.59
2022-08-09T05:07:32.289Z,25.53
2022-08-09T05:10:01.927Z,25.54
2022-08-09T05:12:28.509Z,25.66
2022-08-09T05:15:38.983Z,25.48
2022-08-09T05:18:37.233Z,25.44
2022-08-09T05:20:30.540Z,25.6
2022-08-09T05:23:51.381Z,25.72
2022-08-09T05:26:03.852Z,25.63
2022-08-09T05:28:32.086Z,25.48
2022-08-09T05:31:44.933Z,25.36
2022-08-09T05:34:05.622Z,25.42
2022-08-09T05:36:26.500Z,25.56
2022-08-09T05:39:35.943Z,25.65
2022-08-09T05:42:36.544Z,25.68
2022-08-09T05:45:04.574Z,25.7
2022-08-09T05:47:33.081Z,25.78
2022-08-09T05:50:56.901Z,25.71
2022-08-09T05:53:06.409Z,25.7
2022-08-09T05:55:34.610Z,25.71
2022-08-09T05:58:02.854Z,25.73
2022-08-09T06:00:31.189Z,25.59
2022-08-09T06:03:43.866Z,25.54
2022-08-09T06:06:06.058Z,25.6
2022-08-09T06:08:32.931Z,25.83
2022-08-09T06:11:01.173Z,25.92
2022-08-09T06:13:34.038Z,25.86
2022-08-09T06:16:34.739Z,25.91
2022-08-09T06:19:02.968Z,25.92
2022-08-09T06:21:31.251Z,25.93
2022-08-09T06:24:36.578Z,25.93
2022-08-09T06:27:04.811Z,25.97
2022-08-09T06:29:33.026Z,26.02
2022-08-09T06:32:08.245Z,26.02
2022-08-09T06:34:29.792Z,26.13
2022-08-09T06:37:28.834Z,26.25
2022-08-09T06:40:32.022Z,26.38
2022-08-09T06:43:37.323Z,26.51
2022-08-09T06:46:07.993Z,26.52
2022-08-09T06:48:33.795Z,26.51
2022-08-09T06:51:04.356Z,26.51
2022-08-09T06:53:33.132Z,26.64
2022-08-09T06:56:35.569Z,26.76
2022-08-09T07:00:47.864Z,26.77
2022-08-09T07:01:35.556Z,26.87
2022-08-09T07:04:03.811Z,26.92
2022-08-09T07:06:29.684Z,27.07
2022-08-09T07:09:53.924Z,26.99
2022-08-09T07:12:02.125Z,26.91
2022-08-09T07:15:03.426Z,26.69
2022-08-09T07:17:39.443Z,26.95
2022-08-09T07:20:03.973Z,27.01
2022-08-09T07:22:34.524Z,27.19
2022-08-09T07:25:00.427Z,27.27
2022-08-09T07:27:33.734Z,27.43
2022-08-09T07:30:34.015Z,27.51
2022-08-09T07:33:02.275Z,27.55
2022-08-09T07:35:30.488Z,27.61
2022-08-09T07:38:31.119Z,27.8
2022-08-09T07:41:38.622Z,27.9
2022-08-09T07:44:01.136Z,27.92
2022-08-09T07:46:29.446Z,27.98
2022-08-09T07:49:34.730Z,27.98
2022-08-09T07:52:06.452Z,28.01
2022-08-09T07:54:31.295Z,28.08
2022-08-09T07:57:36.521Z,28.13
2022-08-09T08:00:04.783Z,28.15
2022-08-09T08:02:33.350Z,28.15
2022-08-09T08:05:39.361Z,28.15
2022-08-09T08:08:06.811Z,28.2
2022-08-09T08:10:34.856Z,28.23
2022-08-09T08:13:03.643Z,28.24
2022-08-09T08:15:35.447Z,28.39
2022-08-09T08:18:36.660Z,28.45
2022-08-09T08:21:04.897Z,28.48
2022-08-09T08:23:34.932Z,28.49
2022-08-09T08:26:06.805Z,28.47
2022-08-09T08:28:32.529Z,28.58
2022-08-09T08:31:39.556Z,28.64
2022-08-09T08:34:03.206Z,28.66
2022-08-09T08:36:31.431Z,28.71
2022-08-09T08:39:28.706Z,28.71
2022-08-09T08:42:34.014Z,28.69
2022-08-09T08:45:11.630Z,28.63
2022-08-09T08:47:30.363Z,28.68
2022-08-09T08:50:35.664Z,28.68
2022-08-09T08:53:04.279Z,28.66
2022-08-09T08:55:32.382Z,28.72
2022-08-09T08:58:37.634Z,28.8
2022-08-09T09:01:08.790Z,28.84
2022-08-09T09:03:37.374Z,28.81
2022-08-09T09:06:04.666Z,28.82
2022-08-09T09:08:31.692Z,28.86
2022-08-09T09:11:38.385Z,29.04
2022-08-09T09:14:04.035Z,29.02
2022-08-09T09:16:33.969Z,29.03
2022-08-09T09:19:41.021Z,29.1
2022-08-09T09:22:07.497Z,29.13
2022-08-09T09:24:34.524Z,29.21
2022-08-09T09:27:02.361Z,29.22
2022-08-09T09:29:40.897Z,29.21
2022-08-09T09:32:36.124Z,29.37
2022-08-09T09:35:07.746Z,29.37
2022-08-09T09:38:01.260Z,29.36
2022-08-09T09:40:29.595Z,29.43
2022-08-09T09:43:41.113Z,29.49
2022-08-09T09:48:31.293Z,29.62
2022-08-09T09:51:38.234Z,29.69
2022-08-09T09:54:10.734Z,29.71
2022-08-09T09:56:33.625Z,29.75
2022-08-09T09:59:01.369Z,29.76
2022-08-09T10:01:30.434Z,29.76
2022-08-09T10:04:34.987Z,29.82
2022-08-09T10:07:03.379Z,29.84
2022-08-09T10:09:31.421Z,29.87
2022-08-09T10:12:36.766Z,29.92
2022-08-09T10:15:04.993Z,29.9
2022-08-09T10:17:40.815Z,30.01
2022-08-09T10:20:01.500Z,30.03
2022-08-09T10:22:32.611Z,30.14
2022-08-09T10:26:04.829Z,30.17
2022-08-09T10:28:03.316Z,30.19
2022-08-09T10:34:05.049Z,30.36
2022-08-09T10:36:05.093Z,30.39
2022-08-09T10:38:33.673Z,30.49
2022-08-09T10:40:53.427Z,30.51
2022-08-09T10:43:21.710Z,30.53
2022-08-09T10:46:26.957Z,30.5
2022-08-09T10:49:42.248Z,30.6
2022-08-09T10:52:00.498Z,30.64
2022-08-09T10:54:28.792Z,30.69
2022-08-09T10:57:34.242Z,30.72
2022-08-09T11:00:02.316Z,30.76
2022-08-09T11:03:03.514Z,30.66
2022-08-09T11:05:36.726Z,30.86
2022-08-09T11:08:04.183Z,30.86
2022-08-09T11:10:32.390Z,30.97
2022-08-09T11:13:49.562Z,31.04
2022-08-09T11:16:06.581Z,31.06
2022-08-09T11:18:34.221Z,31.14
2022-08-09T11:21:02.421Z,31.15
2022-08-09T11:23:30.700Z,31.1
2022-08-09T11:26:36.022Z,31.32
2022-08-09T11:29:04.282Z,31.35
2022-08-09T11:31:34.031Z,31.52
2022-08-09T11:34:37.847Z,31.66
2022-08-09T11:38:11.989Z,31.82
2022-08-09T11:41:17.321Z,31.96
2022-08-09T11:44:22.659Z,32.09
2022-08-09T11:47:27.902Z,32.29
2022-08-09T11:50:54.507Z,32.41
2022-08-09T11:53:03.840Z,32.49
2022-08-09T11:55:34.809Z,32.84
2022-08-09T11:58:35.056Z,33.03
2022-08-09T12:01:03.344Z,33.06
2022-08-09T12:03:50.645Z,33.16
2022-08-09T12:06:36.843Z,33.28
2022-08-09T12:09:05.117Z,33.3
2022-08-09T12:11:37.466Z,33.41
2022-08-09T12:14:06.762Z,33.45
2022-08-09T12:16:30.893Z,33.68
2022-08-09T12:19:35.187Z,33.84
2022-08-09T12:22:03.457Z,33.89
2022-08-09T12:24:31.633Z,34.16
2022-08-09T12:28:57.838Z,34.37
2022-08-09T12:30:35.902Z,34.36
2022-08-09T12:33:10.819Z,34.34
2022-08-09T12:36:27.898Z,34.59
2022-08-09T12:38:37.689Z,34.75
2022-08-09T12:41:04.169Z,34.77
2022-08-09T12:44:04.526Z,34.93
2022-08-09T12:46:37.734Z,35.08
2022-08-09T12:49:05.938Z,35.08
2022-08-09T12:51:53.039Z,35.18
2022-08-09T12:54:02.450Z,35.21
2022-08-09T12:56:39.809Z,35.22
2022-08-09T12:59:39.902Z,35.45
2022-08-09T13:02:04.258Z,35.45
2022-08-09T13:04:37.362Z,35.49
2022-08-09T13:07:00.764Z,35.52
2022-08-09T13:09:30.461Z,35.66
2022-08-09T13:12:39.862Z,35.72
2022-08-09T13:15:02.564Z,35.75
2022-08-09T13:17:44.565Z,36.02
2022-08-09T13:20:37.044Z,36.27
2022-08-09T13:23:05.916Z,36.25
2022-08-09T13:25:32.641Z,36.34
2022-08-09T13:28:39.517Z,36.45
2022-08-09T13:31:53.565Z,36.47
2022-08-09T13:33:36.099Z,36.59
2022-08-09T13:36:24.023Z,36.61
2022-08-09T13:38:59.046Z,36.75
2022-08-09T13:41:57.095Z,36.86
2022-08-09T13:44:33.358Z,36.91
2022-08-09T13:47:18.024Z,36.95
2022-08-09T13:49:33.974Z,36.99
2022-08-09T13:52:35.527Z,37.09
2022-08-09T13:55:04.433Z,37.11
2022-08-09T13:57:35.087Z,37.31
2022-08-09T14:00:42.902Z,37.68
2022-08-09T14:03:57.994Z,37.77
2022-08-09T14:05:57.582Z,38.16
2022-08-09T14:08:03.643Z,38.21
2022-08-09T14:10:37.791Z,38.41
2022-08-09T14:14:16.663Z,38.23
2022-08-09T14:16:07.509Z,38.15
2022-08-09T14:18:31.881Z,38.08
2022-08-09T14:21:37.114Z,38.28
2022-08-09T14:24:10.112Z,38.5
2022-08-09T14:26:33.992Z,38.71
2022-08-09T14:29:01.838Z,34.65
2022-08-09T14:32:10.988Z,38.63
2022-08-09T14:34:35.381Z,38.91
2022-08-09T14:37:06.403Z,39.09
2022-08-09T14:39:40.625Z,39.15
2022-08-09T14:42:32.274Z,38.89
2022-08-09T14:46:39.246Z,38.77
2022-08-09T14:48:03.487Z,38.75
2022-08-09T14:50:31.168Z,38.66
2022-08-09T14:53:38.859Z,38.72
2022-08-09T14:56:04.393Z,38.7
2022-08-09T14:58:32.608Z,38.98
2022-08-09T15:02:14.972Z,39.3
2022-08-09T15:06:34.415Z,39.24
2022-08-09T15:09:02.691Z,39.21
2022-08-09T15:11:30.906Z,39.09
2022-08-09T15:14:38.393Z,39.28
2022-08-09T15:17:04.783Z,39.25
2022-08-09T15:19:35.901Z,39.82
2022-08-09T15:22:46.595Z,40.33
2022-08-09T15:25:06.278Z,40.38
2022-08-09T15:27:47.499Z,40.05
2022-08-09T15:30:47.794Z,40.11
2022-08-09T15:32:31.059Z,39.9
2022-08-09T15:35:40.650Z,39.68
2022-08-09T15:38:10.834Z,39.66
2022-08-09T15:40:33.724Z,39.72
2022-08-09T15:43:36.948Z,39.74
2022-08-09T15:46:35.349Z,39.8
2022-08-09T15:49:21.457Z,39.8
2022-08-09T15:52:02.551Z,39.89
2022-08-09T15:54:42.572Z,39.93
2022-08-09T15:57:07.368Z,39.97
2022-08-09T15:59:36.893Z,40.25
2022-08-09T16:02:01.887Z,38.64
2022-08-09T16:05:07.153Z,40.13
2022-08-09T16:07:39.180Z,40.13
2022-08-09T16:10:05.051Z,40.27
2022-08-09T16:12:32.138Z,40.48
2022-08-09T16:16:03.966Z,40.43
2022-08-09T16:18:05.431Z,40.48
2022-08-09T16:20:33.677Z,40.37
2022-08-09T16:23:02.066Z,40.28
2022-08-09T16:25:30.541Z,40.18
2022-08-09T16:28:35.509Z,40.29
2022-08-09T16:31:03.741Z,40.25
2022-08-09T16:33:35.099Z,40.13
2022-08-09T16:36:37.278Z,40.12
2022-08-09T16:39:05.617Z,40.13
2022-08-09T16:41:39.496Z,40.07
2022-08-09T16:44:31.749Z,39.89
2022-08-09T16:48:43.523Z,39.99
2022-08-09T16:50:33.005Z,39.96
2022-08-09T16:52:32.998Z,39.9
2022-08-09T16:55:44.253Z,39.84
2022-08-09T16:58:08.270Z,39.84
2022-08-09T17:00:34.562Z,39.8
2022-08-09T17:03:02.780Z,39.79
2022-08-09T17:06:03.270Z,39.57
2022-08-09T17:08:42.047Z,39.71
2022-08-09T17:11:04.584Z,39.71
2022-08-09T17:13:34.255Z,39.7
2022-08-09T17:16:02.050Z,39.71
2022-08-09T17:18:30.018Z,39.68
2022-08-09T17:21:34.643Z,39.64
2022-08-09T17:24:21.645Z,40.15
2022-08-09T17:26:31.439Z,39.54
2022-08-09T17:30:14.333Z,39.48
2022-08-09T17:33:22.201Z,39.45
2022-08-09T17:36:24.150Z,39.3
2022-08-09T17:39:48.445Z,39.21
2022-08-09T17:42:51.265Z,39.12
2022-08-09T17:45:37.484Z,38.91
2022-08-09T17:48:39.038Z,38.73
2022-08-09T17:51:09.086Z,38.66
2022-08-09T17:53:33.673Z,38.43
2022-08-09T17:56:06.078Z,39.47
2022-08-09T17:59:09.732Z,38.18
2022-08-09T18:01:41.163Z,38.04
2022-08-09T18:04:03.779Z,37.99
2022-08-09T18:06:32.919Z,37.78
2022-08-09T18:09:40.802Z,37.65
2022-08-09T18:12:15.658Z,37.59
2022-08-09T18:14:33.778Z,37.41
2022-08-09T18:17:02.062Z,37.38
2022-08-09T18:20:53.343Z,37.22
2022-08-09T18:22:35.655Z,37.11
2022-08-09T18:25:03.821Z,37.07
2022-08-09T18:27:49.325Z,36.9
2022-08-09T18:30:48.088Z,36.78
2022-08-09T18:33:12.865Z,36.74
2022-08-09T18:35:48.301Z,36.58
2022-08-09T18:38:02.169Z,36.54
2022-08-09T18:40:30.388Z,36.37
2022-08-09T18:43:27.512Z,36.27
2022-08-09T18:46:45.619Z,36.16
2022-08-09T18:49:01.063Z,36.11
2022-08-09T18:51:38.298Z,35.97
2022-08-09T18:54:34.646Z,35.84
2022-08-09T18:57:05.059Z,38.23
2022-08-09T19:00:08.194Z,35.7
2022-08-09T19:02:36.563Z,35.58
2022-08-09T19:05:15.136Z,35.55
2022-08-09T19:07:32.958Z,35.46
2022-08-09T19:10:38.973Z,35.37
2022-08-09T19:13:17.216Z,35.34
2022-08-09T19:15:34.725Z,35.23
2022-08-09T19:18:05.376Z,35.72
2022-08-09T19:20:33.992Z,35.08
2022-08-09T19:24:31.307Z,34.96
2022-08-09T19:27:18.895Z,34.91
2022-08-09T19:30:27.834Z,34.86
2022-08-09T19:33:29.566Z,34.77
2022-08-09T19:36:34.835Z,34.73
2022-08-09T19:39:03.492Z,34.7
2022-08-09T19:41:32.610Z,34.66
2022-08-09T19:44:28.456Z,34.58
2022-08-09T19:47:34.130Z,34.48
2022-08-09T19:50:05.548Z,34.48
2022-08-09T19:52:30.265Z,34.43
2022-08-09T19:55:53.204Z,34.36
2022-08-09T19:58:03.838Z,34.32
2022-08-09T20:00:32.076Z,34.28
2022-08-09T20:04:14.123Z,34.2
2022-08-09T20:06:05.687Z,34.16
2022-08-09T20:08:35.205Z,34.11
2022-08-09T20:11:04.059Z,34.07
2022-08-09T20:13:30.372Z,34
2022-08-09T20:16:39.595Z,33.84
2022-08-09T20:19:43.291Z,33.82
2022-08-09T20:21:40.920Z,33.68
2022-08-09T20:24:37.523Z,33.57
2022-08-09T20:27:08.509Z,33.56
2022-08-09T20:29:37.189Z,33.41
2022-08-09T20:32:29.530Z,33.37
2022-08-09T20:34:30.510Z,33.34
2022-08-09T20:37:38.008Z,33.23
2022-08-09T20:40:14.242Z,33.18
2022-08-09T20:42:32.572Z,33.09
2022-08-09T20:45:56.651Z,32.95
2022-08-09T20:48:34.720Z,32.86
2022-08-09T20:51:03.342Z,34.93
2022-08-09T20:53:35.933Z,32.83
2022-08-09T20:57:13.599Z,32.68
2022-08-09T21:00:21.022Z,32.66
2022-08-09T21:03:24.229Z,32.54
2022-08-09T21:07:11.185Z,32.43
2022-08-09T21:09:41.561Z,32.33
2022-08-09T21:16:22.537Z,32.16
2022-08-09T21:20:04.989Z,32.13
2022-08-09T21:22:36.401Z,32.09
2022-08-09T21:25:01.399Z,32.05
2022-08-09T21:27:50.688Z,31.89
2022-08-09T21:30:36.967Z,31.87
2022-08-09T21:33:03.181Z,31.88
2022-08-09T21:35:31.767Z,31.8
2022-08-09T21:38:36.765Z,31.72
2022-08-09T21:41:05.048Z,31.67
2022-08-09T21:43:31.545Z,31.62
2022-08-09T21:46:30.404Z,31.6
2022-08-09T21:49:38.940Z,31.64
2022-08-09T21:52:03.967Z,31.54
2022-08-09T21:54:32.212Z,31.58
2022-08-09T21:57:59.348Z,31.46
2022-08-09T22:00:05.735Z,31.43
2022-08-09T22:02:36.105Z,31.27
2022-08-09T22:05:10.355Z,31.23
2022-08-09T22:07:35.205Z,31.38
2022-08-09T22:10:35.773Z,31.42
2022-08-09T22:13:07.417Z,31.46
2022-08-09T22:15:33.402Z,31.42
2022-08-09T22:18:37.705Z,31.41
2022-08-09T22:21:09.191Z,31.4
2022-08-09T22:23:35.031Z,31.28
2022-08-09T22:26:04.642Z,31.24
2022-08-09T22:28:32.749Z,31.24
2022-08-09T22:31:36.003Z,31.28
2022-08-09T22:34:09.608Z,31.28
2022-08-09T22:36:37.288Z,31.23
2022-08-09T22:39:47.477Z,31.12
2022-08-09T22:42:34.945Z,31.01
2022-08-09T22:48:05.258Z,30.99
2022-08-09T22:48:07.031Z,31.05
2022-08-09T22:51:17.784Z,31.1
2022-08-09T22:54:21.187Z,31
2022-08-09T22:57:24.307Z,30.95
2022-08-09T23:00:29.757Z,30.92
2022-08-09T23:04:03.071Z,30.85
2022-08-09T23:06:03.222Z,30.8
2022-08-09T23:08:31.682Z,30.7
2022-08-09T23:11:36.782Z,30.71
2022-08-09T23:14:09.854Z,30.76
2022-08-09T23:16:33.243Z,30.86
2022-08-09T23:20:01.326Z,30.76
2022-08-09T23:22:06.841Z,30.74
2022-08-09T23:24:35.962Z,30.71
2022-08-09T23:27:03.307Z,30.67
2022-08-09T23:29:31.564Z,30.58
2022-08-09T23:32:36.858Z,30.65
2022-08-09T23:35:05.117Z,30.65
2022-08-09T23:37:33.442Z,30.56
2022-08-09T23:40:38.685Z,30.64
2022-08-09T23:43:35.797Z,30.65
2022-08-09T23:46:04.064Z,30.67
2022-08-09T23:48:32.327Z,30.65
2022-08-09T23:51:37.598Z,30.66
2022-08-09T23:54:05.881Z,30.65
2022-08-09T23:56:40.070Z,30.57
2022-08-09T23:59:02.338Z,30.59
